sensor_id;sensor_type;location;lat;lon;timestamp;P1;durP1;ratioP1;P2;durP2;ratioP2
6376;SDS011;3221;48.858;10.128;2023-04-29T00:01:15;3.10;;;2.80;;
6376;SDS011;3221;48.858;10.128;2023-04-29T00:03:41;3.40;;;3.10;;
6376;SDS011;3221;48.858;10.128;2023-04-29T00:06:09;3.10;;;2.80;;
6376;SDS011;3221;48.858;10.128;2023-04-29T00:08:37;3.73;;;3.40;;
6376;SDS011;3221;48.858;10.128;2023-04-29T00:11:04;3.60;;;3.30;;
6376;SDS011;3221;48.858;10.128;2023-04-29T00:13:31;4.67;;;3.30;;
6376;SDS011;3221;48.858;10.128;2023-04-29T00:15:58;3.93;;;3.10;;
6376;SDS011;3221;48.858;10.128;2023-04-29T00:18:25;4.17;;;3.20;;
6376;SDS011;3221;48.858;10.128;2023-04-29T00:20:52;2.93;;;2.70;;
6376;SDS011;3221;48.858;10.128;2023-04-29T00:23:19;4.00;;;3.60;;
6376;SDS011;3221;48.858;10.128;2023-04-29T00:25:46;3.53;;;3.00;;
6376;SDS011;3221;48.858;10.128;2023-04-29T00:28:12;3.80;;;3.27;;
6376;SDS011;3221;48.858;10.128;2023-04-29T00:30:39;3.60;;;3.30;;
6376;SDS011;3221;48.858;10.128;2023-04-29T00:33:06;3.43;;;3.10;;
6376;SDS011;3221;48.858;10.128;2023-04-29T00:35:33;4.80;;;3.33;;
6376;SDS011;3221;48.858;10.128;2023-04-29T00:38:00;3.53;;;2.93;;
6376;SDS011;3221;48.858;10.128;2023-04-29T00:40:27;3.80;;;3.30;;
6376;SDS011;3221;48.858;10.128;2023-04-29T00:42:54;5.43;;;3.50;;
6376;SDS011;3221;48.858;10.128;2023-04-29T00:45:21;3.73;;;3.17;;
6376;SDS011;3221;48.858;10.128;2023-04-29T00:47:49;5.13;;;3.47;;
6376;SDS011;3221;48.858;10.128;2023-04-29T00:50:16;4.50;;;3.20;;
6376;SDS011;3221;48.858;10.128;2023-04-29T00:52:43;3.53;;;3.20;;
6376;SDS011;3221;48.858;10.128;2023-04-29T00:55:10;4.67;;;3.53;;
6376;SDS011;3221;48.858;10.128;2023-04-29T00:57:38;4.47;;;4.03;;
6376;SDS011;3221;48.858;10.128;2023-04-29T01:00:05;4.07;;;3.67;;
6376;SDS011;3221;48.858;10.128;2023-04-29T01:02:35;3.97;;;3.47;;
6376;SDS011;3221;48.858;10.128;2023-04-29T01:05:04;6.10;;;4.27;;
6376;SDS011;3221;48.858;10.128;2023-04-29T01:18:17;5.83;;;4.23;;
6376;SDS011;3221;48.858;10.128;2023-04-29T01:20:49;4.20;;;3.80;;
6376;SDS011;3221;48.858;10.128;2023-04-29T01:23:17;4.77;;;3.70;;
6376;SDS011;3221;48.858;10.128;2023-04-29T01:25:43;4.33;;;3.80;;
6376;SDS011;3221;48.858;10.128;2023-04-29T01:28:33;4.27;;;3.70;;
6376;SDS011;3221;48.858;10.128;2023-04-29T01:43:27;4.47;;;3.80;;
6376;SDS011;3221;48.858;10.128;2023-04-29T01:46:08;4.53;;;3.90;;
6376;SDS011;3221;48.858;10.128;2023-04-29T01:48:37;4.03;;;3.60;;
6376;SDS011;3221;48.858;10.128;2023-04-29T01:51:04;4.33;;;3.90;;
6376;SDS011;3221;48.858;10.128;2023-04-29T01:53:32;3.77;;;3.27;;
6376;SDS011;3221;48.858;10.128;2023-04-29T01:55:59;4.23;;;3.83;;
6376;SDS011;3221;48.858;10.128;2023-04-29T01:58:34;4.20;;;3.80;;
6376;SDS011;3221;48.858;10.128;2023-04-29T02:01:31;4.10;;;3.70;;
6376;SDS011;3221;48.858;10.128;2023-04-29T02:03:57;4.60;;;3.47;;
6376;SDS011;3221;48.858;10.128;2023-04-29T02:06:25;5.73;;;3.70;;
6376;SDS011;3221;48.858;10.128;2023-04-29T02:08:57;4.00;;;3.60;;
6376;SDS011;3221;48.858;10.128;2023-04-29T02:11:24;7.00;;;3.33;;
6376;SDS011;3221;48.858;10.128;2023-04-29T02:13:53;6.10;;;3.70;;
6376;SDS011;3221;48.858;10.128;2023-04-29T02:16:21;5.77;;;3.47;;
6376;SDS011;3221;48.858;10.128;2023-04-29T02:18:53;4.43;;;3.53;;
6376;SDS011;3221;48.858;10.128;2023-04-29T02:21:20;4.13;;;3.47;;
6376;SDS011;3221;48.858;10.128;2023-04-29T02:23:47;4.57;;;3.13;;
6376;SDS011;3221;48.858;10.128;2023-04-29T02:26:14;3.90;;;3.23;;
6376;SDS011;3221;48.858;10.128;2023-04-29T02:28:41;6.97;;;3.80;;
6376;SDS011;3221;48.858;10.128;2023-04-29T02:31:08;4.67;;;3.50;;
6376;SDS011;3221;48.858;10.128;2023-04-29T02:33:35;5.33;;;3.80;;
6376;SDS011;3221;48.858;10.128;2023-04-29T02:36:02;4.00;;;3.60;;
6376;SDS011;3221;48.858;10.128;2023-04-29T02:38:29;4.27;;;3.80;;
6376;SDS011;3221;48.858;10.128;2023-04-29T02:40:56;5.63;;;3.97;;
6376;SDS011;3221;48.858;10.128;2023-04-29T02:43:22;5.17;;;3.77;;
6376;SDS011;3221;48.858;10.128;2023-04-29T02:45:49;4.97;;;3.93;;
6376;SDS011;3221;48.858;10.128;2023-04-29T02:48:16;6.23;;;4.10;;
6376;SDS011;3221;48.858;10.128;2023-04-29T02:50:43;4.87;;;3.73;;
6376;SDS011;3221;48.858;10.128;2023-04-29T02:53:10;5.67;;;4.00;;
6376;SDS011;3221;48.858;10.128;2023-04-29T02:55:37;5.33;;;3.60;;
6376;SDS011;3221;48.858;10.128;2023-04-29T02:58:07;4.17;;;3.57;;
6376;SDS011;3221;48.858;10.128;2023-04-29T03:00:34;3.87;;;3.53;;
6376;SDS011;3221;48.858;10.128;2023-04-29T03:03:01;6.57;;;3.97;;
6376;SDS011;3221;48.858;10.128;2023-04-29T03:05:29;5.23;;;3.80;;
6376;SDS011;3221;48.858;10.128;2023-04-29T03:07:55;6.33;;;3.83;;
6376;SDS011;3221;48.858;10.128;2023-04-29T03:10:22;5.63;;;4.10;;
6376;SDS011;3221;48.858;10.128;2023-04-29T03:12:49;3.90;;;3.57;;
6376;SDS011;3221;48.858;10.128;2023-04-29T03:15:16;5.63;;;4.30;;
6376;SDS011;3221;48.858;10.128;2023-04-29T03:17:44;9.80;;;4.47;;
6376;SDS011;3221;48.858;10.128;2023-04-29T03:20:12;9.03;;;4.03;;
6376;SDS011;3221;48.858;10.128;2023-04-29T03:22:39;4.60;;;4.00;;
6376;SDS011;3221;48.858;10.128;2023-04-29T03:25:06;7.83;;;3.80;;
6376;SDS011;3221;48.858;10.128;2023-04-29T03:27:37;4.37;;;3.97;;
6376;SDS011;3221;48.858;10.128;2023-04-29T03:30:05;4.33;;;3.90;;
6376;SDS011;3221;48.858;10.128;2023-04-29T03:32:36;6.40;;;4.10;;
6376;SDS011;3221;48.858;10.128;2023-04-29T03:35:03;6.50;;;3.80;;
6376;SDS011;3221;48.858;10.128;2023-04-29T03:37:37;7.13;;;4.60;;
6376;SDS011;3221;48.858;10.128;2023-04-29T03:40:30;6.73;;;4.50;;
6376;SDS011;3221;48.858;10.128;2023-04-29T03:42:57;5.77;;;4.20;;
6376;SDS011;3221;48.858;10.128;2023-04-29T03:45:26;7.37;;;4.97;;
6376;SDS011;3221;48.858;10.128;2023-04-29T03:47:52;7.30;;;4.70;;
6376;SDS011;3221;48.858;10.128;2023-04-29T03:50:20;5.20;;;4.60;;
6376;SDS011;3221;48.858;10.128;2023-04-29T03:52:48;7.20;;;4.57;;
6376;SDS011;3221;48.858;10.128;2023-04-29T03:55:17;5.53;;;4.50;;
6376;SDS011;3221;48.858;10.128;2023-04-29T03:57:44;5.63;;;4.60;;
6376;SDS011;3221;48.858;10.128;2023-04-29T04:00:14;5.13;;;4.63;;
6376;SDS011;3221;48.858;10.128;2023-04-29T04:02:47;6.30;;;5.20;;
6376;SDS011;3221;48.858;10.128;2023-04-29T04:05:14;6.60;;;4.90;;
6376;SDS011;3221;48.858;10.128;2023-04-29T04:07:47;5.53;;;5.03;;
6376;SDS011;3221;48.858;10.128;2023-04-29T04:10:32;7.27;;;5.20;;
6376;SDS011;3221;48.858;10.128;2023-04-29T04:13:03;6.13;;;5.10;;
6376;SDS011;3221;48.858;10.128;2023-04-29T04:15:31;5.20;;;4.70;;
6376;SDS011;3221;48.858;10.128;2023-04-29T04:17:58;5.73;;;4.70;;
6376;SDS011;3221;48.858;10.128;2023-04-29T04:20:26;5.00;;;4.50;;
6376;SDS011;3221;48.858;10.128;2023-04-29T04:22:53;7.33;;;4.53;;
6376;SDS011;3221;48.858;10.128;2023-04-29T04:25:26;5.50;;;4.87;;
6376;SDS011;3221;48.858;10.128;2023-04-29T04:28:00;5.53;;;4.93;;
6376;SDS011;3221;48.858;10.128;2023-04-29T04:30:44;8.03;;;5.70;;
6376;SDS011;3221;48.858;10.128;2023-04-29T04:33:11;6.37;;;5.63;;
6376;SDS011;3221;48.858;10.128;2023-04-29T04:35:41;7.30;;;5.93;;
6376;SDS011;3221;48.858;10.128;2023-04-29T04:38:08;8.93;;;6.93;;
6376;SDS011;3221;48.858;10.128;2023-04-29T04:40:39;9.37;;;7.07;;
6376;SDS011;3221;48.858;10.128;2023-04-29T04:43:32;9.80;;;7.87;;
6376;SDS011;3221;48.858;10.128;2023-04-29T04:46:08;8.07;;;7.27;;
6376;SDS011;3221;48.858;10.128;2023-04-29T04:48:47;8.63;;;6.93;;
6376;SDS011;3221;48.858;10.128;2023-04-29T04:51:14;8.80;;;7.07;;
6376;SDS011;3221;48.858;10.128;2023-04-29T04:53:41;8.60;;;6.90;;
6376;SDS011;3221;48.858;10.128;2023-04-29T04:56:16;7.63;;;6.13;;
6376;SDS011;3221;48.858;10.128;2023-04-29T04:58:43;8.40;;;6.40;;
6376;SDS011;3221;48.858;10.128;2023-04-29T05:01:10;7.83;;;6.57;;
6376;SDS011;3221;48.858;10.128;2023-04-29T05:03:37;6.83;;;6.13;;
6376;SDS011;3221;48.858;10.128;2023-04-29T05:06:05;7.47;;;6.60;;
6376;SDS011;3221;48.858;10.128;2023-04-29T05:08:31;8.43;;;6.40;;
6376;SDS011;3221;48.858;10.128;2023-04-29T05:11:01;7.13;;;6.03;;
6376;SDS011;3221;48.858;10.128;2023-04-29T05:13:28;8.37;;;6.20;;
6376;SDS011;3221;48.858;10.128;2023-04-29T05:15:54;7.03;;;6.33;;
6376;SDS011;3221;48.858;10.128;2023-04-29T05:18:25;8.33;;;6.50;;
6376;SDS011;3221;48.858;10.128;2023-04-29T05:20:52;8.47;;;6.60;;
6376;SDS011;3221;48.858;10.128;2023-04-29T05:23:19;7.10;;;5.83;;
6376;SDS011;3221;48.858;10.128;2023-04-29T05:25:46;9.57;;;5.87;;
6376;SDS011;3221;48.858;10.128;2023-04-29T05:28:15;7.20;;;6.50;;
6376;SDS011;3221;48.858;10.128;2023-04-29T05:30:42;8.83;;;5.93;;
6376;SDS011;3221;48.858;10.128;2023-04-29T05:33:10;6.87;;;5.90;;
6376;SDS011;3221;48.858;10.128;2023-04-29T05:35:37;8.27;;;5.90;;
6376;SDS011;3221;48.858;10.128;2023-04-29T05:38:04;8.60;;;5.97;;
6376;SDS011;3221;48.858;10.128;2023-04-29T05:40:37;7.77;;;5.37;;
6376;SDS011;3221;48.858;10.128;2023-04-29T05:43:24;6.60;;;5.47;;
6376;SDS011;3221;48.858;10.128;2023-04-29T05:45:51;5.60;;;5.07;;
6376;SDS011;3221;48.858;10.128;2023-04-29T05:48:18;6.70;;;5.63;;
6376;SDS011;3221;48.858;10.128;2023-04-29T05:50:45;10.60;;;6.00;;
6376;SDS011;3221;48.858;10.128;2023-04-29T05:53:13;8.93;;;7.03;;
6376;SDS011;3221;48.858;10.128;2023-04-29T05:55:41;8.37;;;6.80;;
6376;SDS011;3221;48.858;10.128;2023-04-29T05:58:11;9.60;;;6.97;;
6376;SDS011;3221;48.858;10.128;2023-04-29T06:00:38;7.77;;;6.70;;
6376;SDS011;3221;48.858;10.128;2023-04-29T06:03:12;9.60;;;6.40;;
6376;SDS011;3221;48.858;10.128;2023-04-29T06:05:39;7.60;;;6.10;;
6376;SDS011;3221;48.858;10.128;2023-04-29T06:08:26;6.93;;;6.23;;
6376;SDS011;3221;48.858;10.128;2023-04-29T06:10:59;8.10;;;6.77;;
6376;SDS011;3221;48.858;10.128;2023-04-29T06:13:28;6.77;;;6.07;;
6376;SDS011;3221;48.858;10.128;2023-04-29T06:15:56;7.83;;;7.03;;
6376;SDS011;3221;48.858;10.128;2023-04-29T06:18:24;8.17;;;6.93;;
6376;SDS011;3221;48.858;10.128;2023-04-29T06:20:51;9.57;;;6.90;;
6376;SDS011;3221;48.858;10.128;2023-04-29T06:23:18;9.27;;;6.47;;
6376;SDS011;3221;48.858;10.128;2023-04-29T06:25:46;7.70;;;6.90;;
6376;SDS011;3221;48.858;10.128;2023-04-29T06:28:14;7.97;;;6.30;;
6376;SDS011;3221;48.858;10.128;2023-04-29T06:30:41;7.77;;;6.90;;
6376;SDS011;3221;48.858;10.128;2023-04-29T06:33:09;7.13;;;6.43;;
6376;SDS011;3221;48.858;10.128;2023-04-29T06:35:40;14.47;;;8.77;;
6376;SDS011;3221;48.858;10.128;2023-04-29T06:38:26;10.67;;;7.93;;
6376;SDS011;3221;48.858;10.128;2023-04-29T06:40:52;13.07;;;8.50;;
6376;SDS011;3221;48.858;10.128;2023-04-29T06:43:29;10.07;;;8.33;;
6376;SDS011;3221;48.858;10.128;2023-04-29T06:45:59;11.50;;;8.27;;
6376;SDS011;3221;48.858;10.128;2023-04-29T06:48:32;9.00;;;7.60;;
6376;SDS011;3221;48.858;10.128;2023-04-29T06:51:02;9.07;;;8.10;;
6376;SDS011;3221;48.858;10.128;2023-04-29T06:53:29;8.40;;;7.57;;
6376;SDS011;3221;48.858;10.128;2023-04-29T06:55:56;10.97;;;8.13;;
6376;SDS011;3221;48.858;10.128;2023-04-29T06:58:23;8.80;;;7.90;;
6376;SDS011;3221;48.858;10.128;2023-04-29T07:00:50;9.23;;;7.80;;
6376;SDS011;3221;48.858;10.128;2023-04-29T07:03:17;8.77;;;7.23;;
6376;SDS011;3221;48.858;10.128;2023-04-29T07:05:45;8.70;;;7.70;;
6376;SDS011;3221;48.858;10.128;2023-04-29T07:08:12;8.70;;;7.53;;
6376;SDS011;3221;48.858;10.128;2023-04-29T07:10:39;8.80;;;7.90;;
6376;SDS011;3221;48.858;10.128;2023-04-29T07:13:06;8.73;;;7.83;;
6376;SDS011;3221;48.858;10.128;2023-04-29T07:15:34;9.00;;;7.83;;
6376;SDS011;3221;48.858;10.128;2023-04-29T07:18:04;10.33;;;7.90;;
6376;SDS011;3221;48.858;10.128;2023-04-29T07:20:35;8.70;;;7.80;;
6376;SDS011;3221;48.858;10.128;2023-04-29T07:23:02;9.30;;;8.23;;
6376;SDS011;3221;48.858;10.128;2023-04-29T07:25:29;9.87;;;8.37;;
6376;SDS011;3221;48.858;10.128;2023-04-29T07:27:56;9.80;;;8.33;;
6376;SDS011;3221;48.858;10.128;2023-04-29T07:30:24;9.93;;;8.70;;
6376;SDS011;3221;48.858;10.128;2023-04-29T07:32:51;9.37;;;8.43;;
6376;SDS011;3221;48.858;10.128;2023-04-29T07:35:18;8.70;;;7.87;;
6376;SDS011;3221;48.858;10.128;2023-04-29T07:37:46;9.30;;;8.40;;
6376;SDS011;3221;48.858;10.128;2023-04-29T07:40:13;8.97;;;7.70;;
6376;SDS011;3221;48.858;10.128;2023-04-29T07:42:43;8.90;;;8.10;;
6376;SDS011;3221;48.858;10.128;2023-04-29T07:45:10;9.40;;;8.20;;
6376;SDS011;3221;48.858;10.128;2023-04-29T07:47:39;9.83;;;7.87;;
6376;SDS011;3221;48.858;10.128;2023-04-29T07:50:06;8.60;;;7.70;;
6376;SDS011;3221;48.858;10.128;2023-04-29T07:52:33;8.80;;;7.70;;
6376;SDS011;3221;48.858;10.128;2023-04-29T07:55:01;9.50;;;7.87;;
6376;SDS011;3221;48.858;10.128;2023-04-29T07:57:28;7.67;;;6.83;;
6376;SDS011;3221;48.858;10.128;2023-04-29T07:59:55;7.00;;;6.30;;
6376;SDS011;3221;48.858;10.128;2023-04-29T08:02:22;8.70;;;5.87;;
6376;SDS011;3221;48.858;10.128;2023-04-29T08:04:49;7.23;;;5.77;;
6376;SDS011;3221;48.858;10.128;2023-04-29T08:07:17;7.90;;;5.63;;
6376;SDS011;3221;48.858;10.128;2023-04-29T08:09:44;6.27;;;5.53;;
6376;SDS011;3221;48.858;10.128;2023-04-29T08:12:11;6.23;;;5.63;;
6376;SDS011;3221;48.858;10.128;2023-04-29T08:14:39;9.67;;;6.23;;
6376;SDS011;3221;48.858;10.128;2023-04-29T08:17:06;10.40;;;5.67;;
6376;SDS011;3221;48.858;10.128;2023-04-29T08:19:33;5.67;;;5.07;;
6376;SDS011;3221;48.858;10.128;2023-04-29T08:22:01;6.90;;;5.93;;
6376;SDS011;3221;48.858;10.128;2023-04-29T08:24:29;6.40;;;5.40;;
6376;SDS011;3221;48.858;10.128;2023-04-29T08:26:56;5.70;;;5.10;;
6376;SDS011;3221;48.858;10.128;2023-04-29T08:29:24;7.40;;;5.77;;
6376;SDS011;3221;48.858;10.128;2023-04-29T08:31:51;6.10;;;5.50;;
6376;SDS011;3221;48.858;10.128;2023-04-29T08:34:18;5.73;;;5.23;;
6376;SDS011;3221;48.858;10.128;2023-04-29T08:36:45;11.40;;;6.33;;
6376;SDS011;3221;48.858;10.128;2023-04-29T08:39:11;9.33;;;5.83;;
6376;SDS011;3221;48.858;10.128;2023-04-29T08:41:38;5.87;;;5.13;;
6376;SDS011;3221;48.858;10.128;2023-04-29T08:44:05;6.47;;;5.73;;
6376;SDS011;3221;48.858;10.128;2023-04-29T08:46:32;5.83;;;5.23;;
6376;SDS011;3221;48.858;10.128;2023-04-29T08:49:01;6.27;;;5.57;;
6376;SDS011;3221;48.858;10.128;2023-04-29T08:51:29;6.17;;;5.27;;
6376;SDS011;3221;48.858;10.128;2023-04-29T08:53:57;5.77;;;5.17;;
6376;SDS011;3221;48.858;10.128;2023-04-29T08:56:24;6.07;;;5.47;;
6376;SDS011;3221;48.858;10.128;2023-04-29T08:58:53;7.27;;;5.20;;
6376;SDS011;3221;48.858;10.128;2023-04-29T09:01:27;6.43;;;5.33;;
6376;SDS011;3221;48.858;10.128;2023-04-29T09:03:57;6.50;;;5.33;;
6376;SDS011;3221;48.858;10.128;2023-04-29T09:07:03;6.73;;;5.30;;
6376;SDS011;3221;48.858;10.128;2023-04-29T09:09:32;5.77;;;5.07;;
6376;SDS011;3221;48.858;10.128;2023-04-29T09:11:59;7.40;;;5.00;;
6376;SDS011;3221;48.858;10.128;2023-04-29T09:14:26;6.27;;;4.27;;
6376;SDS011;3221;48.858;10.128;2023-04-29T09:16:55;8.47;;;4.70;;
6376;SDS011;3221;48.858;10.128;2023-04-29T09:19:30;6.40;;;4.70;;
6376;SDS011;3221;48.858;10.128;2023-04-29T09:21:58;8.53;;;4.53;;
6376;SDS011;3221;48.858;10.128;2023-04-29T09:24:26;6.40;;;4.27;;
6376;SDS011;3221;48.858;10.128;2023-04-29T09:26:55;6.03;;;3.80;;
6376;SDS011;3221;48.858;10.128;2023-04-29T09:29:23;6.20;;;3.70;;
6376;SDS011;3221;48.858;10.128;2023-04-29T09:31:50;5.67;;;4.03;;
6376;SDS011;3221;48.858;10.128;2023-04-29T09:34:31;6.17;;;4.17;;
6376;SDS011;3221;48.858;10.128;2023-04-29T09:37:01;5.53;;;3.90;;
6376;SDS011;3221;48.858;10.128;2023-04-29T09:39:37;4.57;;;4.10;;
6376;SDS011;3221;48.858;10.128;2023-04-29T09:42:05;5.73;;;3.73;;
6376;SDS011;3221;48.858;10.128;2023-04-29T09:44:32;5.57;;;3.87;;
6376;SDS011;3221;48.858;10.128;2023-04-29T09:47:02;5.63;;;4.27;;
6376;SDS011;3221;48.858;10.128;2023-04-29T09:49:34;3.97;;;3.60;;
6376;SDS011;3221;48.858;10.128;2023-04-29T09:52:07;4.10;;;3.60;;
6376;SDS011;3221;48.858;10.128;2023-04-29T09:54:36;4.40;;;4.00;;
6376;SDS011;3221;48.858;10.128;2023-04-29T09:57:05;4.53;;;4.13;;
6376;SDS011;3221;48.858;10.128;2023-04-29T09:59:34;4.30;;;3.90;;
6376;SDS011;3221;48.858;10.128;2023-04-29T10:02:07;4.20;;;3.80;;
6376;SDS011;3221;48.858;10.128;2023-04-29T10:04:44;4.13;;;3.73;;
6376;SDS011;3221;48.858;10.128;2023-04-29T10:07:14;5.37;;;3.73;;
6376;SDS011;3221;48.858;10.128;2023-04-29T10:09:45;4.00;;;3.70;;
6376;SDS011;3221;48.858;10.128;2023-04-29T10:12:17;4.10;;;3.70;;
6376;SDS011;3221;48.858;10.128;2023-04-29T10:17:38;4.40;;;3.40;;
6376;SDS011;3221;48.858;10.128;2023-04-29T10:20:37;7.07;;;4.57;;
6376;SDS011;3221;48.858;10.128;2023-04-29T10:23:11;4.77;;;3.83;;
6376;SDS011;3221;48.858;10.128;2023-04-29T10:25:43;4.30;;;4.00;;
6376;SDS011;3221;48.858;10.128;2023-04-29T10:28:12;3.67;;;3.37;;
6376;SDS011;3221;48.858;10.128;2023-04-29T10:30:45;3.57;;;3.27;;
6376;SDS011;3221;48.858;10.128;2023-04-29T10:33:17;3.40;;;3.10;;
6376;SDS011;3221;48.858;10.128;2023-04-29T10:35:44;3.77;;;3.37;;
6376;SDS011;3221;48.858;10.128;2023-04-29T10:38:15;3.70;;;3.40;;
6376;SDS011;3221;48.858;10.128;2023-04-29T10:40:49;3.33;;;2.97;;
6376;SDS011;3221;48.858;10.128;2023-04-29T10:43:22;3.33;;;3.03;;
6376;SDS011;3221;48.858;10.128;2023-04-29T10:45:50;3.30;;;3.00;;
6376;SDS011;3221;48.858;10.128;2023-04-29T10:48:43;4.20;;;3.60;;
6376;SDS011;3221;48.858;10.128;2023-04-29T10:51:10;3.50;;;3.20;;
6376;SDS011;3221;48.858;10.128;2023-04-29T10:56:36;4.03;;;3.43;;
6376;SDS011;3221;48.858;10.128;2023-04-29T10:59:05;4.20;;;3.80;;
6376;SDS011;3221;48.858;10.128;2023-04-29T11:01:42;3.73;;;3.43;;
6376;SDS011;3221;48.858;10.128;2023-04-29T11:04:16;4.47;;;3.80;;
6376;SDS011;3221;48.858;10.128;2023-04-29T11:06:54;4.90;;;3.77;;
6376;SDS011;3221;48.858;10.128;2023-04-29T11:09:25;4.40;;;3.90;;
6376;SDS011;3221;48.858;10.128;2023-04-29T11:12:00;3.90;;;3.60;;
6376;SDS011;3221;48.858;10.128;2023-04-29T11:14:33;3.90;;;3.60;;
6376;SDS011;3221;48.858;10.128;2023-04-29T11:17:16;3.83;;;3.50;;
6376;SDS011;3221;48.858;10.128;2023-04-29T11:19:51;4.13;;;3.73;;
6376;SDS011;3221;48.858;10.128;2023-04-29T11:25:07;3.77;;;3.47;;
6376;SDS011;3221;48.858;10.128;2023-04-29T11:27:35;3.77;;;3.47;;
6376;SDS011;3221;48.858;10.128;2023-04-29T11:30:04;4.73;;;4.33;;
6376;SDS011;3221;48.858;10.128;2023-04-29T11:32:33;4.30;;;3.90;;
6376;SDS011;3221;48.858;10.128;2023-04-29T11:37:34;4.60;;;4.20;;
6376;SDS011;3221;48.858;10.128;2023-04-29T11:40:02;4.93;;;4.13;;
6376;SDS011;3221;48.858;10.128;2023-04-29T11:42:32;4.50;;;4.10;;
6376;SDS011;3221;48.858;10.128;2023-04-29T11:45:01;4.33;;;3.93;;
6376;SDS011;3221;48.858;10.128;2023-04-29T11:47:29;4.30;;;3.90;;
6376;SDS011;3221;48.858;10.128;2023-04-29T11:50:06;4.13;;;3.70;;
6376;SDS011;3221;48.858;10.128;2023-04-29T11:52:37;3.90;;;3.60;;
6376;SDS011;3221;48.858;10.128;2023-04-29T11:55:04;4.10;;;3.33;;
6376;SDS011;3221;48.858;10.128;2023-04-29T11:57:35;4.90;;;3.50;;
6376;SDS011;3221;48.858;10.128;2023-04-29T12:00:02;5.80;;;3.40;;
6376;SDS011;3221;48.858;10.128;2023-04-29T12:02:33;5.73;;;3.93;;
6376;SDS011;3221;48.858;10.128;2023-04-29T12:05:09;3.90;;;3.60;;
6376;SDS011;3221;48.858;10.128;2023-04-29T12:07:38;5.27;;;4.77;;
6376;SDS011;3221;48.858;10.128;2023-04-29T12:10:09;5.30;;;4.30;;
6376;SDS011;3221;48.858;10.128;2023-04-29T12:12:38;4.80;;;4.40;;
6376;SDS011;3221;48.858;10.128;2023-04-29T12:15:09;4.50;;;4.10;;
6376;SDS011;3221;48.858;10.128;2023-04-29T12:17:37;4.40;;;4.00;;
6376;SDS011;3221;48.858;10.128;2023-04-29T12:20:05;4.00;;;3.60;;
6376;SDS011;3221;48.858;10.128;2023-04-29T12:22:35;5.83;;;3.90;;
6376;SDS011;3221;48.858;10.128;2023-04-29T12:25:03;4.73;;;3.23;;
6376;SDS011;3221;48.858;10.128;2023-04-29T12:27:31;4.03;;;3.67;;
6376;SDS011;3221;48.858;10.128;2023-04-29T12:29:59;5.20;;;3.43;;
6376;SDS011;3221;48.858;10.128;2023-04-29T12:32:26;4.07;;;3.53;;
6376;SDS011;3221;48.858;10.128;2023-04-29T12:34:53;3.23;;;2.97;;
6376;SDS011;3221;48.858;10.128;2023-04-29T12:37:21;3.77;;;3.30;;
6376;SDS011;3221;48.858;10.128;2023-04-29T12:39:49;3.60;;;3.30;;
6376;SDS011;3221;48.858;10.128;2023-04-29T12:42:16;5.43;;;3.30;;
6376;SDS011;3221;48.858;10.128;2023-04-29T12:44:43;7.50;;;3.40;;
6376;SDS011;3221;48.858;10.128;2023-04-29T12:47:13;5.80;;;3.50;;
6376;SDS011;3221;48.858;10.128;2023-04-29T12:49:41;4.23;;;3.23;;
6376;SDS011;3221;48.858;10.128;2023-04-29T12:52:09;6.53;;;3.47;;
6376;SDS011;3221;48.858;10.128;2023-04-29T12:54:37;5.27;;;4.13;;
6376;SDS011;3221;48.858;10.128;2023-04-29T12:57:07;4.83;;;3.67;;
6376;SDS011;3221;48.858;10.128;2023-04-29T12:59:35;4.90;;;4.00;;
6376;SDS011;3221;48.858;10.128;2023-04-29T13:02:02;4.00;;;3.40;;
6376;SDS011;3221;48.858;10.128;2023-04-29T13:04:30;6.63;;;4.07;;
6376;SDS011;3221;48.858;10.128;2023-04-29T13:06:57;4.60;;;4.20;;
6376;SDS011;3221;48.858;10.128;2023-04-29T13:09:27;4.30;;;3.90;;
6376;SDS011;3221;48.858;10.128;2023-04-29T13:11:55;6.27;;;4.13;;
6376;SDS011;3221;48.858;10.128;2023-04-29T13:14:23;8.17;;;4.20;;
6376;SDS011;3221;48.858;10.128;2023-04-29T13:16:50;7.27;;;4.73;;
6376;SDS011;3221;48.858;10.128;2023-04-29T13:19:16;6.43;;;4.90;;
6376;SDS011;3221;48.858;10.128;2023-04-29T13:22:03;7.20;;;4.70;;
6376;SDS011;3221;48.858;10.128;2023-04-29T13:24:30;6.00;;;5.40;;
6376;SDS011;3221;48.858;10.128;2023-04-29T13:26:58;7.87;;;6.23;;
6376;SDS011;3221;48.858;10.128;2023-04-29T13:29:25;7.60;;;6.90;;
6376;SDS011;3221;48.858;10.128;2023-04-29T13:31:52;8.03;;;6.33;;
6376;SDS011;3221;48.858;10.128;2023-04-29T13:34:19;7.17;;;6.27;;
6376;SDS011;3221;48.858;10.128;2023-04-29T13:36:46;8.30;;;6.70;;
6376;SDS011;3221;48.858;10.128;2023-04-29T13:39:13;11.07;;;6.87;;
6376;SDS011;3221;48.858;10.128;2023-04-29T13:41:40;8.67;;;7.27;;
6376;SDS011;3221;48.858;10.128;2023-04-29T13:44:11;13.67;;;7.73;;
6376;SDS011;3221;48.858;10.128;2023-04-29T13:46:41;10.30;;;7.30;;
6376;SDS011;3221;48.858;10.128;2023-04-29T13:49:08;9.80;;;7.40;;
6376;SDS011;3221;48.858;10.128;2023-04-29T13:51:54;10.93;;;7.00;;
6376;SDS011;3221;48.858;10.128;2023-04-29T13:54:41;8.80;;;6.80;;
6376;SDS011;3221;48.858;10.128;2023-04-29T13:57:11;11.87;;;7.30;;
6376;SDS011;3221;48.858;10.128;2023-04-29T13:59:41;11.53;;;8.00;;
6376;SDS011;3221;48.858;10.128;2023-04-29T14:02:17;11.43;;;7.77;;
6376;SDS011;3221;48.858;10.128;2023-04-29T14:04:47;11.47;;;7.40;;
6376;SDS011;3221;48.858;10.128;2023-04-29T14:07:14;9.70;;;7.27;;
6376;SDS011;3221;48.858;10.128;2023-04-29T14:09:41;9.63;;;7.03;;
6376;SDS011;3221;48.858;10.128;2023-04-29T14:12:08;8.60;;;6.93;;
6376;SDS011;3221;48.858;10.128;2023-04-29T14:14:35;8.43;;;7.50;;
6376;SDS011;3221;48.858;10.128;2023-04-29T14:17:02;10.07;;;7.87;;
6376;SDS011;3221;48.858;10.128;2023-04-29T14:19:29;10.27;;;7.90;;
6376;SDS011;3221;48.858;10.128;2023-04-29T14:21:55;13.43;;;8.13;;
6376;SDS011;3221;48.858;10.128;2023-04-29T14:24:22;10.67;;;7.90;;
6376;SDS011;3221;48.858;10.128;2023-04-29T14:26:49;10.93;;;8.17;;
6376;SDS011;3221;48.858;10.128;2023-04-29T14:29:17;11.70;;;7.97;;
6376;SDS011;3221;48.858;10.128;2023-04-29T14:31:44;15.53;;;8.63;;
6376;SDS011;3221;48.858;10.128;2023-04-29T14:34:11;8.73;;;7.40;;
6376;SDS011;3221;48.858;10.128;2023-04-29T14:36:38;10.40;;;8.50;;
6376;SDS011;3221;48.858;10.128;2023-04-29T14:39:06;10.77;;;7.93;;
6376;SDS011;3221;48.858;10.128;2023-04-29T14:41:33;12.53;;;7.80;;
6376;SDS011;3221;48.858;10.128;2023-04-29T14:44:00;11.67;;;8.50;;
6376;SDS011;3221;48.858;10.128;2023-04-29T14:46:27;13.90;;;8.33;;
6376;SDS011;3221;48.858;10.128;2023-04-29T14:48:54;13.83;;;8.80;;
6376;SDS011;3221;48.858;10.128;2023-04-29T14:51:21;12.57;;;9.00;;
6376;SDS011;3221;48.858;10.128;2023-04-29T14:53:48;15.83;;;8.93;;
6376;SDS011;3221;48.858;10.128;2023-04-29T14:56:15;12.27;;;8.50;;
6376;SDS011;3221;48.858;10.128;2023-04-29T14:58:43;14.00;;;8.60;;
6376;SDS011;3221;48.858;10.128;2023-04-29T15:01:10;18.47;;;12.17;;
6376;SDS011;3221;48.858;10.128;2023-04-29T15:03:37;21.53;;;13.40;;
6376;SDS011;3221;48.858;10.128;2023-04-29T15:06:06;14.90;;;11.07;;
6376;SDS011;3221;48.858;10.128;2023-04-29T15:08:33;10.57;;;8.47;;
6376;SDS011;3221;48.858;10.128;2023-04-29T15:11:00;15.73;;;8.23;;
6376;SDS011;3221;48.858;10.128;2023-04-29T15:13:27;11.03;;;7.80;;
6376;SDS011;3221;48.858;10.128;2023-04-29T15:15:57;11.77;;;7.50;;
6376;SDS011;3221;48.858;10.128;2023-04-29T15:18:24;10.10;;;7.17;;
6376;SDS011;3221;48.858;10.128;2023-04-29T15:20:51;9.83;;;6.83;;
6376;SDS011;3221;48.858;10.128;2023-04-29T15:23:19;8.17;;;6.07;;
6376;SDS011;3221;48.858;10.128;2023-04-29T15:25:46;10.03;;;6.90;;
6376;SDS011;3221;48.858;10.128;2023-04-29T15:28:13;10.00;;;7.13;;
6376;SDS011;3221;48.858;10.128;2023-04-29T15:30:40;9.53;;;6.90;;
6376;SDS011;3221;48.858;10.128;2023-04-29T15:33:07;10.10;;;7.10;;
6376;SDS011;3221;48.858;10.128;2023-04-29T15:35:34;11.47;;;6.93;;
6376;SDS011;3221;48.858;10.128;2023-04-29T15:38:02;8.93;;;6.83;;
6376;SDS011;3221;48.858;10.128;2023-04-29T15:40:29;8.57;;;6.47;;
6376;SDS011;3221;48.858;10.128;2023-04-29T15:42:56;8.10;;;6.50;;
6376;SDS011;3221;48.858;10.128;2023-04-29T15:45:23;8.63;;;6.60;;
6376;SDS011;3221;48.858;10.128;2023-04-29T15:47:50;9.83;;;6.50;;